createdAt,value
2022-10-11T00:00:09.083Z,46.33
2022-10-11T00:02:52.683Z,41.70
2022-10-11T00:05:23.239Z,48.53
2022-10-11T00:08:06.323Z,45.78
2022-10-11T00:10:35.257Z,47.80
2022-10-11T00:13:02.281Z,42.42
2022-10-11T00:15:30.228Z,41.55
2022-10-11T00:18:05.284Z,45.30
2022-10-11T00:20:32.602Z,48.05
2022-10-11T00:23:01.894Z,42.88
2022-10-11T00:25:29.231Z,49.97
2022-10-11T00:27:56.158Z,46.65
2022-10-11T00:30:23.151Z,44.88
2022-10-11T00:32:59.257Z,47.30
2022-10-11T00:35:29.787Z,45.90
2022-10-11T00:38:04.060Z,46.50
2022-10-11T00:40:33.596Z,44.58
2022-10-11T00:43:01.904Z,42.25
2022-10-11T00:45:32.268Z,47.45
2022-10-11T00:48:10.865Z,46.53
2022-10-11T00:50:38.708Z,54.40
2022-10-11T00:53:11.440Z,50.78
2022-10-11T00:55:59.662Z,49.37
2022-10-11T00:58:30.017Z,45.08
2022-10-11T01:01:00.354Z,45.95
2022-10-11T01:03:30.854Z,45.38
2022-10-11T01:05:58.229Z,47.38
2022-10-11T01:08:26.189Z,52.00
2022-10-11T01:10:53.396Z,43.55
2022-10-11T01:13:59.294Z,46.80
2022-10-11T01:16:39.057Z,44.72
2022-10-11T01:19:34.695Z,47.65
2022-10-11T01:22:35.794Z,41.60
2022-10-11T01:25:18.087Z,49.30
2022-10-11T01:28:10.435Z,49.45
2022-10-11T01:30:41.529Z,46.88
2022-10-11T01:33:38.552Z,47.10
2022-10-11T01:36:32.122Z,53.35
2022-10-11T01:39:04.201Z,46.70
2022-10-11T01:41:43.019Z,47.78
2022-10-11T01:44:11.805Z,41.67
2022-10-11T01:46:39.437Z,41.00
2022-10-11T01:49:07.080Z,44.78
2022-10-11T01:51:48.987Z,49.88
2022-10-11T01:55:07.613Z,54.22
2022-10-11T01:57:50.494Z,51.53
2022-10-11T02:00:41.421Z,51.50
2022-10-11T02:03:22.714Z,52.78
2022-10-11T02:06:03.173Z,50.60
2022-10-11T02:08:53.184Z,43.70
2022-10-11T02:11:30.729Z,47.03
2022-10-11T02:14:01.048Z,45.05
2022-10-11T02:16:33.177Z,49.78
2022-10-11T02:19:08.106Z,48.72
2022-10-11T02:21:36.876Z,52.65
2022-10-11T02:24:12.591Z,43.47
2022-10-11T02:26:43.145Z,51.40
2022-10-11T02:29:12.330Z,51.22
2022-10-11T02:31:39.922Z,48.20
2022-10-11T02:34:24.825Z,45.00
2022-10-11T02:37:10.991Z,44.10
2022-10-11T02:39:49.196Z,50.15
2022-10-11T02:42:27.099Z,54.28
2022-10-11T02:45:01.453Z,49.80
2022-10-11T02:47:30.183Z,50.95
2022-10-11T02:49:58.902Z,50.10
2022-10-11T02:52:26.588Z,50.33
2022-10-11T02:55:06.451Z,47.17
2022-10-11T02:57:33.797Z,47.55
2022-10-11T03:00:01.377Z,52.50
2022-10-11T03:02:28.252Z,55.20
2022-10-11T03:04:55.492Z,49.45
2022-10-11T03:07:22.439Z,49.47
2022-10-11T03:09:49.431Z,50.33
2022-10-11T03:12:16.589Z,54.83
2022-10-11T03:14:43.660Z,52.45
2022-10-11T03:17:34.517Z,52.17
2022-10-11T03:19:58.002Z,45.10
2022-10-11T03:22:35.648Z,56.80
2022-10-11T03:25:09.445Z,51.97
2022-10-11T03:27:36.603Z,54.08
2022-10-11T03:30:04.470Z,57.30
2022-10-11T03:32:31.679Z,54.35
2022-10-11T03:34:58.915Z,59.78
2022-10-11T03:37:26.119Z,55.45
2022-10-11T03:39:53.333Z,56.90
2022-10-11T03:42:20.429Z,56.90
2022-10-11T03:44:52.093Z,59.13
2022-10-11T03:47:19.730Z,54.20
2022-10-11T03:49:46.856Z,52.92
2022-10-11T03:52:16.513Z,50.67
2022-10-11T03:54:43.586Z,51.53
2022-10-11T03:57:11.623Z,50.60
2022-10-11T03:59:38.860Z,57.90
2022-10-11T04:02:05.847Z,53.80
2022-10-11T04:04:33.382Z,52.85
2022-10-11T04:07:00.503Z,59.20
2022-10-11T04:09:27.724Z,56.78
2022-10-11T04:11:54.643Z,58.33
2022-10-11T04:14:25.071Z,60.78
2022-10-11T04:16:52.152Z,56.58
2022-10-11T04:19:19.284Z,59.05
2022-10-11T04:21:46.376Z,53.92
2022-10-11T04:24:13.344Z,56.90
2022-10-11T04:26:40.263Z,56.13
2022-10-11T04:29:14.328Z,53.85
2022-10-11T04:31:41.798Z,59.75
2022-10-11T04:34:08.937Z,66.07
2022-10-11T04:36:36.061Z,53.78
2022-10-11T04:39:03.404Z,55.30
2022-10-11T04:42:08.137Z,54.85
2022-10-11T04:44:18.706Z,53.85
2022-10-11T04:46:45.887Z,54.05
2022-10-11T04:49:12.821Z,54.80
2022-10-11T04:51:40.101Z,58.50
2022-10-11T04:54:07.194Z,57.30
2022-10-11T04:56:44.554Z,61.40
2022-10-11T04:59:11.947Z,60.22
2022-10-11T05:01:39.486Z,64.53
2022-10-11T05:04:06.821Z,58.63
2022-10-11T05:06:33.728Z,59.85
2022-10-11T05:09:00.711Z,55.70
2022-10-11T05:11:27.895Z,52.10
2022-10-11T05:14:00.809Z,51.15
2022-10-11T05:16:28.317Z,55.35
2022-10-11T05:18:55.395Z,62.67
2022-10-11T05:21:27.647Z,58.97
2022-10-11T05:23:59.075Z,56.85
2022-10-11T05:26:28.020Z,55.65
2022-10-11T05:28:55.552Z,58.40
2022-10-11T05:31:23.291Z,59.95
2022-10-11T05:33:52.014Z,61.53
2022-10-11T05:36:31.587Z,59.58
2022-10-11T05:39:31.035Z,67.78
2022-10-11T05:42:08.918Z,52.38
2022-10-11T05:44:54.546Z,50.13
2022-10-11T05:47:42.960Z,59.10
2022-10-11T05:50:24.386Z,59.75
2022-10-11T05:55:34.373Z,57.95
2022-10-11T05:58:01.885Z,60.85
2022-10-11T06:00:32.714Z,57.33
2022-10-11T06:03:00.564Z,49.58
2022-10-11T06:05:33.869Z,48.53
2022-10-11T06:08:10.090Z,45.25
2022-10-11T06:10:45.080Z,47.20
2022-10-11T06:15:49.317Z,43.15
2022-10-11T06:18:16.773Z,39.60
2022-10-11T06:20:45.638Z,38.95
2022-10-11T06:23:12.980Z,48.67
2022-10-11T06:25:43.855Z,46.28
2022-10-11T06:28:52.562Z,31.60
2022-10-11T06:31:36.085Z,36.78
2022-10-11T06:34:45.259Z,31.33
2022-10-11T06:37:22.620Z,27.15
2022-10-11T06:39:50.573Z,38.00
2022-10-11T06:42:17.713Z,52.38
2022-10-11T06:45:03.178Z,34.05
2022-10-11T06:50:59.000Z,35.70
2022-10-11T06:53:31.561Z,43.78
2022-10-11T06:56:06.170Z,42.60
2022-10-11T06:58:59.736Z,39.20
2022-10-11T07:02:09.666Z,35.05
2022-10-11T07:05:29.404Z,31.23
2022-10-11T07:08:42.534Z,33.90
2022-10-11T07:12:00.936Z,40.95
2022-10-11T07:14:28.883Z,35.83
2022-10-11T07:17:04.118Z,37.72
2022-10-11T07:19:34.014Z,34.97
2022-10-11T07:22:01.236Z,37.03
2022-10-11T07:24:42.555Z,36.08
2022-10-11T07:27:19.383Z,45.20
2022-10-11T07:30:01.747Z,37.17
2022-10-11T07:33:33.822Z,39.42
2022-10-11T07:36:09.644Z,37.45
2022-10-11T07:38:40.973Z,39.20
2022-10-11T07:41:09.498Z,41.28
2022-10-11T07:43:37.718Z,33.95
2022-10-11T07:46:06.304Z,37.30
2022-10-11T07:48:34.911Z,42.72
2022-10-11T07:51:04.046Z,37.38
2022-10-11T07:53:31.033Z,40.80
2022-10-11T07:56:02.332Z,34.85
2022-10-11T07:58:30.116Z,42.28
2022-10-11T08:00:57.477Z,41.83
2022-10-11T08:03:24.550Z,32.42
2022-10-11T08:05:52.643Z,31.48
2022-10-11T08:08:19.955Z,29.83
2022-10-11T08:10:52.770Z,28.30
2022-10-11T08:13:20.184Z,30.83
2022-10-11T08:15:47.905Z,32.75
2022-10-11T08:18:15.288Z,35.85
2022-10-11T08:20:42.428Z,32.58
2022-10-11T08:23:09.636Z,31.48
2022-10-11T08:25:42.566Z,39.92
2022-10-11T08:28:10.639Z,32.70
2022-10-11T08:30:38.241Z,34.85
2022-10-11T08:33:08.591Z,31.77
2022-10-11T08:35:36.358Z,32.70
2022-10-11T08:38:03.613Z,39.47
2022-10-11T08:40:35.180Z,41.05
2022-10-11T08:43:05.203Z,35.95
2022-10-11T08:45:39.485Z,44.08
2022-10-11T08:48:26.198Z,40.45
2022-10-11T08:50:54.197Z,45.13
2022-10-11T08:53:40.479Z,42.83
2022-10-11T08:56:11.385Z,41.53
2022-10-11T08:59:02.702Z,43.53
2022-10-11T09:01:31.291Z,48.10
2022-10-11T09:04:00.275Z,46.10
2022-10-11T09:06:29.868Z,48.28
2022-10-11T09:09:34.115Z,51.40
2022-10-11T09:12:22.784Z,46.33
2022-10-11T09:15:09.200Z,43.80
2022-10-11T09:18:10.239Z,53.17
2022-10-11T09:20:56.400Z,51.05
2022-10-11T09:23:36.720Z,52.28
2022-10-11T09:26:09.028Z,58.40
2022-10-11T09:29:00.155Z,57.85
2022-10-11T09:31:28.631Z,55.63
2022-10-11T09:33:55.979Z,55.75
2022-10-11T09:36:29.895Z,51.80
2022-10-11T09:39:25.977Z,54.28
2022-10-11T09:41:58.838Z,54.00
2022-10-11T09:44:27.823Z,54.92
2022-10-11T09:46:56.688Z,51.42
2022-10-11T09:49:39.649Z,47.28
2022-10-11T09:52:14.974Z,50.78
2022-10-11T09:54:44.832Z,83.50
2022-10-11T09:57:22.550Z,54.70
2022-10-11T10:00:21.947Z,45.17
2022-10-11T10:02:51.298Z,43.33
2022-10-11T10:05:21.977Z,46.22
2022-10-11T10:08:08.108Z,42.45
2022-10-11T10:10:40.408Z,41.40
2022-10-11T10:13:21.824Z,47.07
2022-10-11T10:15:55.505Z,43.42
2022-10-11T10:18:37.704Z,36.97
2022-10-11T10:21:15.064Z,34.10
2022-10-11T10:23:42.854Z,36.88
2022-10-11T10:26:17.064Z,43.63
2022-10-11T10:29:05.565Z,34.50
2022-10-11T10:32:01.517Z,39.28
2022-10-11T10:34:36.257Z,34.72
2022-10-11T10:37:29.194Z,36.28
2022-10-11T10:40:04.055Z,33.43
2022-10-11T10:42:31.272Z,37.38
2022-10-11T10:44:59.973Z,32.17
2022-10-11T10:47:49.797Z,36.65
2022-10-11T10:50:30.254Z,29.85
2022-10-11T10:53:05.873Z,35.60
2022-10-11T10:55:47.941Z,33.20
2022-10-11T10:58:25.188Z,37.70
2022-10-11T11:00:58.796Z,28.98
2022-10-11T11:03:45.174Z,31.35
2022-10-11T11:06:22.797Z,31.83
2022-10-11T11:09:28.498Z,27.70
2022-10-11T11:12:14.763Z,29.73
2022-10-11T11:14:59.934Z,22.77
2022-10-11T11:17:51.180Z,18.88
2022-10-11T11:20:27.600Z,26.73
2022-10-11T11:23:12.841Z,22.52
2022-10-11T11:26:26.806Z,17.35
2022-10-11T11:33:12.866Z,27.60
2022-10-11T11:36:27.103Z,18.75
2022-10-11T11:39:04.982Z,22.55
2022-10-11T11:41:39.781Z,18.13
2022-10-11T11:44:27.587Z,17.63
2022-10-11T11:47:03.533Z,18.42
2022-10-11T11:49:50.461Z,18.85
2022-10-11T11:52:26.380Z,16.05
2022-10-11T11:55:06.231Z,19.48
2022-10-11T11:58:12.359Z,20.48
2022-10-11T12:09:20.825Z,27.02
2022-10-11T12:16:30.587Z,18.50
2022-10-11T12:19:18.813Z,18.38
2022-10-11T12:23:24.445Z,30.55
2022-10-11T12:29:54.112Z,29.30
2022-10-11T12:36:44.538Z,20.65
2022-10-11T12:40:09.760Z,17.10
2022-10-11T12:42:37.390Z,16.58
2022-10-11T12:45:16.746Z,20.40
2022-10-11T12:48:23.406Z,22.80
2022-10-11T12:51:34.665Z,17.25
2022-10-11T12:54:58.628Z,15.13
2022-10-11T12:58:05.264Z,19.83
2022-10-11T13:01:44.358Z,19.23
2022-10-11T13:04:17.678Z,23.80
2022-10-11T13:06:47.876Z,32.08
2022-10-11T13:09:46.588Z,19.40
2022-10-11T13:12:21.269Z,25.25
2022-10-11T13:14:57.454Z,22.77
2022-10-11T13:17:37.292Z,25.60
2022-10-11T13:20:19.144Z,23.50
2022-10-11T13:22:56.173Z,20.80
2022-10-11T13:25:25.897Z,27.88
2022-10-11T13:27:56.495Z,19.85
2022-10-11T13:30:31.034Z,18.40
2022-10-11T13:32:59.461Z,19.45
2022-10-11T13:35:32.047Z,19.77
2022-10-11T13:38:00.598Z,22.73
2022-10-11T13:40:28.136Z,21.95
2022-10-11T13:42:55.483Z,22.20
2022-10-11T13:45:27.474Z,21.27
2022-10-11T13:47:55.304Z,19.95
2022-10-11T13:50:34.622Z,33.05
2022-10-11T13:53:08.397Z,15.90
2022-10-11T13:58:12.801Z,25.60
2022-10-11T14:00:55.506Z,14.65
2022-10-11T14:03:24.716Z,17.40
2022-10-11T14:05:59.079Z,17.75
2022-10-11T14:08:26.155Z,26.38
2022-10-11T14:10:57.253Z,16.30
2022-10-11T14:13:38.618Z,18.43
2022-10-11T14:16:19.000Z,21.23
2022-10-11T14:19:00.077Z,19.85
2022-10-11T14:21:45.870Z,27.02
2022-10-11T14:24:14.660Z,30.25
2022-10-11T14:26:44.774Z,22.55
2022-10-11T14:29:22.245Z,21.00
2022-10-11T14:31:49.629Z,20.02
2022-10-11T14:34:21.133Z,24.85
2022-10-11T14:36:49.125Z,20.02
2022-10-11T14:39:18.564Z,22.70
2022-10-11T14:41:46.296Z,24.20
2022-10-11T14:44:19.548Z,20.60
2022-10-11T14:46:48.228Z,13.38
2022-10-11T14:49:18.762Z,19.52
2022-10-11T14:51:47.686Z,24.85
2022-10-11T14:54:15.948Z,27.85
2022-10-11T14:56:42.948Z,29.48
2022-10-11T14:59:26.931Z,19.98
2022-10-11T15:01:54.378Z,18.15
2022-10-11T15:04:23.378Z,20.40
2022-10-11T15:06:51.627Z,14.98
2022-10-11T15:09:20.913Z,17.25
2022-10-11T15:11:48.855Z,25.00
2022-10-11T15:14:15.994Z,19.67
2022-10-11T15:16:43.049Z,16.27
2022-10-11T15:19:16.141Z,20.35
2022-10-11T15:21:43.228Z,23.15
2022-10-11T15:24:10.101Z,18.42
2022-10-11T15:26:37.320Z,22.77
2022-10-11T15:29:04.737Z,16.65
2022-10-11T15:31:31.597Z,23.67
2022-10-11T15:33:59.803Z,19.00
2022-10-11T15:36:28.836Z,21.23
2022-10-11T15:38:56.549Z,21.20
2022-10-11T15:41:24.024Z,26.50
2022-10-11T15:43:51.031Z,27.27
2022-10-11T15:46:20.245Z,19.80
2022-10-11T15:48:48.151Z,26.33
2022-10-11T15:51:16.071Z,26.67
2022-10-11T15:53:44.199Z,18.52
2022-10-11T15:56:15.871Z,26.10
2022-10-11T15:58:43.935Z,27.58
2022-10-11T16:01:19.303Z,22.77
2022-10-11T16:03:48.663Z,22.52
2022-10-11T16:06:16.558Z,27.80
2022-10-11T16:08:43.671Z,21.42
2022-10-11T16:11:11.635Z,17.23
2022-10-11T16:13:39.301Z,30.75
2022-10-11T16:16:07.977Z,26.48
2022-10-11T16:18:36.242Z,23.27
2022-10-11T16:21:08.752Z,24.42
2022-10-11T16:23:38.391Z,18.02
2022-10-11T16:26:12.039Z,19.90
2022-10-11T16:28:39.371Z,21.40
2022-10-11T16:31:11.230Z,31.55
2022-10-11T16:33:45.962Z,29.98
2022-10-11T16:36:34.002Z,34.15
2022-10-11T16:39:06.666Z,20.52
2022-10-11T16:41:33.812Z,20.77
2022-10-11T16:44:00.753Z,18.85
2022-10-11T16:46:27.941Z,18.88
2022-10-11T16:49:04.521Z,31.98
2022-10-11T16:51:31.390Z,36.70
2022-10-11T16:53:58.658Z,23.33
2022-10-11T16:56:25.645Z,35.97
2022-10-11T16:58:53.509Z,27.35
2022-10-11T17:01:21.909Z,21.05
2022-10-11T17:03:49.934Z,31.13
2022-10-11T17:06:17.347Z,27.65
2022-10-11T17:08:44.636Z,40.28
2022-10-11T17:11:11.781Z,26.95
2022-10-11T17:13:38.848Z,38.17
2022-10-11T17:16:06.353Z,20.65
2022-10-11T17:18:34.455Z,20.33
2022-10-11T17:21:03.042Z,21.17
2022-10-11T17:23:30.362Z,23.15
2022-10-11T17:25:57.554Z,25.08
2022-10-11T17:28:24.911Z,25.98
2022-10-11T17:30:56.805Z,25.35
2022-10-11T17:33:26.288Z,29.05
2022-10-11T17:35:54.575Z,40.03
2022-10-11T17:38:26.299Z,30.33
2022-10-11T17:41:07.285Z,34.63
2022-10-11T17:43:37.503Z,29.42
2022-10-11T17:49:07.119Z,38.75
2022-10-11T17:51:41.295Z,40.30
2022-10-11T17:54:13.380Z,33.13
2022-10-11T17:56:44.809Z,44.58
2022-10-11T17:59:20.950Z,48.95
2022-10-11T18:01:51.290Z,36.75
2022-10-11T18:04:20.835Z,36.13
2022-10-11T18:06:52.102Z,39.25
2022-10-11T18:13:50.033Z,41.13
2022-10-11T18:17:27.125Z,68.75
2022-10-11T18:20:25.230Z,44.63
2022-10-11T18:23:13.158Z,34.80
2022-10-11T18:27:13.697Z,56.50
2022-10-11T18:31:19.487Z,40.70
2022-10-11T18:34:49.274Z,44.17
2022-10-11T18:38:08.310Z,41.43
2022-10-11T18:40:44.681Z,42.88
2022-10-11T18:44:17.437Z,50.38
2022-10-11T18:47:31.358Z,43.35
2022-10-11T18:49:59.238Z,51.25
2022-10-11T18:52:44.532Z,57.78
2022-10-11T18:55:46.623Z,49.50
2022-10-11T18:58:14.676Z,49.75
2022-10-11T19:00:41.883Z,44.15
2022-10-11T19:03:12.261Z,36.42
2022-10-11T19:06:28.790Z,42.33
2022-10-11T19:09:04.707Z,56.00
2022-10-11T19:11:32.349Z,38.30
2022-10-11T19:14:17.917Z,52.70
2022-10-11T19:20:49.125Z,50.30
2022-10-11T19:23:27.056Z,55.72
2022-10-11T19:26:44.245Z,42.10
2022-10-11T19:29:20.695Z,40.30
2022-10-11T19:31:50.522Z,48.70
2022-10-11T19:38:14.185Z,52.58
2022-10-11T19:40:46.069Z,45.70
2022-10-11T19:43:13.154Z,54.65
2022-10-11T19:45:48.079Z,48.67
2022-10-11T19:48:15.900Z,54.25
2022-10-11T19:50:44.018Z,48.67
2022-10-11T19:53:11.404Z,55.15
2022-10-11T19:55:46.278Z,44.08
2022-10-11T19:58:13.491Z,49.55
2022-10-11T20:00:43.816Z,48.50
2022-10-11T20:03:20.667Z,55.90
2022-10-11T20:05:47.908Z,44.25
2022-10-11T20:08:18.578Z,51.65
2022-10-11T20:10:45.623Z,46.95
2022-10-11T20:13:12.984Z,39.40
2022-10-11T20:15:40.051Z,47.95
2022-10-11T20:18:09.903Z,53.15
2022-10-11T20:20:36.932Z,43.95
2022-10-11T20:23:04.651Z,45.08
2022-10-11T20:25:34.414Z,42.65
2022-10-11T20:28:01.429Z,47.05
2022-10-11T20:30:31.196Z,41.58
2022-10-11T20:32:58.418Z,38.08
2022-10-11T20:35:26.564Z,46.97
2022-10-11T20:37:54.423Z,47.25
2022-10-11T20:40:22.210Z,50.03
2022-10-11T20:42:51.924Z,42.85
2022-10-11T20:45:19.243Z,50.85
2022-10-11T20:47:46.596Z,41.05
2022-10-11T20:50:13.980Z,48.85
2022-10-11T20:52:47.175Z,54.85
2022-10-11T20:55:16.782Z,42.10
2022-10-11T20:57:44.098Z,49.60
2022-10-11T21:00:49.702Z,51.92
2022-10-11T21:06:36.770Z,44.35
2022-10-11T21:09:04.391Z,46.78
2022-10-11T21:11:33.565Z,50.80
2022-10-11T21:14:39.665Z,55.40
2022-10-11T21:17:09.288Z,53.35
2022-10-11T21:19:39.407Z,49.70
2022-10-11T21:22:06.666Z,39.95
2022-10-11T21:24:59.849Z,47.45
2022-10-11T21:27:31.797Z,47.45
2022-10-11T21:29:59.158Z,60.10
2022-10-11T21:32:26.337Z,52.50
2022-10-11T21:34:53.597Z,50.53
2022-10-11T21:37:21.362Z,43.88
2022-10-11T21:39:48.879Z,41.10
2022-10-11T21:42:16.192Z,43.40
2022-10-11T21:45:04.060Z,43.25
2022-10-11T21:47:31.546Z,41.28
2022-10-11T21:50:00.402Z,40.58
2022-10-11T21:52:30.919Z,45.33
2022-10-11T21:55:10.556Z,52.95
2022-10-11T21:57:37.556Z,45.30
2022-10-11T22:00:06.863Z,41.60
2022-10-11T22:02:42.606Z,42.78
2022-10-11T22:05:10.924Z,42.85
2022-10-11T22:07:40.394Z,49.95
2022-10-11T22:10:07.429Z,50.08
2022-10-11T22:12:34.731Z,47.50
2022-10-11T22:15:01.824Z,45.58
2022-10-11T22:17:29.956Z,52.88
2022-10-11T22:20:02.273Z,52.75
2022-10-11T22:22:39.562Z,47.92
2022-10-11T22:25:08.885Z,56.00
2022-10-11T22:27:35.998Z,53.33
2022-10-11T22:30:03.179Z,49.58
2022-10-11T22:32:32.849Z,50.85
2022-10-11T22:35:02.723Z,50.85
2022-10-11T22:37:29.629Z,47.83
2022-10-11T22:39:57.078Z,46.22
2022-10-11T22:42:27.529Z,58.58
2022-10-11T22:44:57.256Z,45.83
2022-10-11T22:47:27.581Z,48.20
2022-10-11T22:50:12.264Z,52.33
2022-10-11T22:52:59.207Z,47.97
2022-10-11T22:55:36.888Z,48.28
2022-10-11T22:58:28.111Z,57.95
2022-10-11T23:01:39.904Z,51.17
2022-10-11T23:04:22.372Z,49.88
2022-10-11T23:07:04.823Z,52.38
2022-10-11T23:09:35.863Z,57.97
2022-10-11T23:12:08.572Z,48.65
2022-10-11T23:14:35.792Z,60.50
2022-10-11T23:17:02.806Z,46.35
2022-10-11T23:19:30.055Z,48.63
2022-10-11T23:22:11.217Z,51.30
2022-10-11T23:24:38.778Z,48.90
2022-10-11T23:27:09.198Z,55.65
2022-10-11T23:29:53.209Z,50.75
2022-10-11T23:32:20.164Z,52.75
2022-10-11T23:34:47.352Z,42.08
2022-10-11T23:37:17.256Z,46.30
2022-10-11T23:39:53.802Z,48.90
2022-10-11T23:42:24.567Z,52.92
2022-10-11T23:44:59.731Z,41.85
2022-10-11T23:47:28.210Z,48.67
2022-10-11T23:49:59.017Z,56.30
2022-10-11T23:52:26.503Z,47.28
2022-10-11T23:54:53.579Z,57.13
2022-10-11T23:57:20.552Z,57.72
2022-10-11T23:59:49.884Z,59.08
